sensor_id;sensor_type;location;lat;lon;timestamp;P1;durP1;ratioP1;P2;durP2;ratioP2
16760;SDS011;8498;52.516;13.790;2023-11-22T00:04:47;7.97;;;4.23;;
16760;SDS011;8498;52.516;13.790;2023-11-22T00:10:09;6.57;;;4.10;;
16760;SDS011;8498;52.516;13.790;2023-11-22T00:15:32;11.43;;;4.77;;
16760;SDS011;8498;52.516;13.790;2023-11-22T00:20:54;10.53;;;4.53;;
16760;SDS011;8498;52.516;13.790;2023-11-22T00:26:18;10.37;;;3.90;;
16760;SDS011;8498;52.516;13.790;2023-11-22T00:31:49;7.93;;;4.40;;
16760;SDS011;8498;52.516;13.790;2023-11-22T00:37:12;9.47;;;4.60;;
16760;SDS011;8498;52.516;13.790;2023-11-22T00:42:34;12.87;;;4.73;;
16760;SDS011;8498;52.516;13.790;2023-11-22T00:47:57;7.80;;;4.53;;
16760;SDS011;8498;52.516;13.790;2023-11-22T00:53:20;9.10;;;4.50;;
16760;SDS011;8498;52.516;13.790;2023-11-22T00:58:42;8.27;;;4.37;;
16760;SDS011;8498;52.516;13.790;2023-11-22T01:04:05;9.70;;;4.63;;
16760;SDS011;8498;52.516;13.790;2023-11-22T01:09:29;12.77;;;5.13;;
16760;SDS011;8498;52.516;13.790;2023-11-22T01:14:52;10.43;;;5.07;;
16760;SDS011;8498;52.516;13.790;2023-11-22T01:20:15;10.30;;;4.30;;
16760;SDS011;8498;52.516;13.790;2023-11-22T01:25:37;15.87;;;4.60;;
16760;SDS011;8498;52.516;13.790;2023-11-22T01:31:02;13.57;;;5.20;;
16760;SDS011;8498;52.516;13.790;2023-11-22T01:36:26;9.40;;;4.77;;
16760;SDS011;8498;52.516;13.790;2023-11-22T01:41:49;14.83;;;4.60;;
16760;SDS011;8498;52.516;13.790;2023-11-22T01:47:12;9.87;;;4.37;;
16760;SDS011;8498;52.516;13.790;2023-11-22T01:52:34;7.90;;;4.20;;
16760;SDS011;8498;52.516;13.790;2023-11-22T01:57:57;9.07;;;4.67;;
16760;SDS011;8498;52.516;13.790;2023-11-22T02:03:20;9.83;;;4.43;;
16760;SDS011;8498;52.516;13.790;2023-11-22T02:08:43;6.77;;;4.30;;
16760;SDS011;8498;52.516;13.790;2023-11-22T02:14:05;5.57;;;3.53;;
16760;SDS011;8498;52.516;13.790;2023-11-22T02:19:29;7.70;;;4.50;;
16760;SDS011;8498;52.516;13.790;2023-11-22T02:24:52;5.37;;;3.60;;
16760;SDS011;8498;52.516;13.790;2023-11-22T02:30:15;4.20;;;3.20;;
16760;SDS011;8498;52.516;13.790;2023-11-22T02:35:38;5.83;;;3.70;;
16760;SDS011;8498;52.516;13.790;2023-11-22T02:41:01;5.13;;;3.17;;
16760;SDS011;8498;52.516;13.790;2023-11-22T02:46:24;8.00;;;3.63;;
16760;SDS011;8498;52.516;13.790;2023-11-22T02:51:48;8.10;;;3.60;;
16760;SDS011;8498;52.516;13.790;2023-11-22T02:57:11;4.73;;;3.13;;
16760;SDS011;8498;52.516;13.790;2023-11-22T03:02:34;5.60;;;3.70;;
16760;SDS011;8498;52.516;13.790;2023-11-22T03:07:57;7.70;;;4.10;;
16760;SDS011;8498;52.516;13.790;2023-11-22T03:13:20;6.17;;;3.90;;
16760;SDS011;8498;52.516;13.790;2023-11-22T03:18:43;5.67;;;3.30;;
16760;SDS011;8498;52.516;13.790;2023-11-22T03:24:05;8.23;;;4.00;;
16760;SDS011;8498;52.516;13.790;2023-11-22T03:29:29;5.47;;;3.10;;
16760;SDS011;8498;52.516;13.790;2023-11-22T03:34:51;8.63;;;3.83;;
16760;SDS011;8498;52.516;13.790;2023-11-22T03:40:14;6.33;;;3.80;;
16760;SDS011;8498;52.516;13.790;2023-11-22T03:45:37;8.33;;;4.00;;
16760;SDS011;8498;52.516;13.790;2023-11-22T03:50:59;9.60;;;4.20;;
16760;SDS011;8498;52.516;13.790;2023-11-22T03:56:22;7.10;;;3.83;;
16760;SDS011;8498;52.516;13.790;2023-11-22T04:01:45;8.40;;;3.60;;
16760;SDS011;8498;52.516;13.790;2023-11-22T04:07:07;9.00;;;4.20;;
16760;SDS011;8498;52.516;13.790;2023-11-22T04:12:30;8.70;;;3.57;;
16760;SDS011;8498;52.516;13.790;2023-11-22T04:17:55;8.20;;;4.47;;
16760;SDS011;8498;52.516;13.790;2023-11-22T04:23:18;5.27;;;3.67;;
16760;SDS011;8498;52.516;13.790;2023-11-22T04:28:41;8.87;;;4.60;;
16760;SDS011;8498;52.516;13.790;2023-11-22T04:34:04;9.00;;;3.63;;
16760;SDS011;8498;52.516;13.790;2023-11-22T04:39:26;6.47;;;4.43;;
16760;SDS011;8498;52.516;13.790;2023-11-22T04:44:49;6.23;;;3.73;;
16760;SDS011;8498;52.516;13.790;2023-11-22T04:50:12;7.73;;;4.33;;
16760;SDS011;8498;52.516;13.790;2023-11-22T04:55:34;8.57;;;3.73;;
16760;SDS011;8498;52.516;13.790;2023-11-22T05:00:57;9.63;;;4.00;;
16760;SDS011;8498;52.516;13.790;2023-11-22T05:06:21;8.13;;;4.07;;
16760;SDS011;8498;52.516;13.790;2023-11-22T05:11:44;10.47;;;4.40;;
16760;SDS011;8498;52.516;13.790;2023-11-22T05:17:09;7.20;;;4.13;;
16760;SDS011;8498;52.516;13.790;2023-11-22T05:22:32;10.73;;;4.40;;
16760;SDS011;8498;52.516;13.790;2023-11-22T05:27:54;7.20;;;3.90;;
16760;SDS011;8498;52.516;13.790;2023-11-22T05:33:17;12.23;;;4.90;;
16760;SDS011;8498;52.516;13.790;2023-11-22T05:38:40;13.57;;;5.23;;
16760;SDS011;8498;52.516;13.790;2023-11-22T05:44:02;9.13;;;4.27;;
16760;SDS011;8498;52.516;13.790;2023-11-22T05:49:26;8.03;;;3.73;;
16760;SDS011;8498;52.516;13.790;2023-11-22T05:54:48;11.30;;;4.47;;
16760;SDS011;8498;52.516;13.790;2023-11-22T06:00:11;6.60;;;4.13;;
16760;SDS011;8498;52.516;13.790;2023-11-22T06:05:36;9.33;;;3.90;;
16760;SDS011;8498;52.516;13.790;2023-11-22T06:10:58;12.03;;;5.20;;
16760;SDS011;8498;52.516;13.790;2023-11-22T06:16:22;13.20;;;5.03;;
16760;SDS011;8498;52.516;13.790;2023-11-22T06:21:44;10.50;;;4.47;;
16760;SDS011;8498;52.516;13.790;2023-11-22T06:27:08;6.90;;;4.43;;
16760;SDS011;8498;52.516;13.790;2023-11-22T06:32:30;8.83;;;4.73;;
16760;SDS011;8498;52.516;13.790;2023-11-22T06:37:52;8.20;;;4.83;;
16760;SDS011;8498;52.516;13.790;2023-11-22T06:43:15;14.87;;;5.20;;
16760;SDS011;8498;52.516;13.790;2023-11-22T06:48:38;9.73;;;5.13;;
16760;SDS011;8498;52.516;13.790;2023-11-22T06:54:01;9.30;;;5.20;;
16760;SDS011;8498;52.516;13.790;2023-11-22T06:59:23;11.70;;;4.90;;
16760;SDS011;8498;52.516;13.790;2023-11-22T07:04:48;9.63;;;4.57;;
16760;SDS011;8498;52.516;13.790;2023-11-22T07:10:11;11.30;;;5.73;;
16760;SDS011;8498;52.516;13.790;2023-11-22T07:15:35;11.33;;;5.53;;
16760;SDS011;8498;52.516;13.790;2023-11-22T07:20:57;16.17;;;5.93;;
16760;SDS011;8498;52.516;13.790;2023-11-22T07:26:22;16.50;;;6.17;;
16760;SDS011;8498;52.516;13.790;2023-11-22T07:31:44;8.10;;;5.20;;
16760;SDS011;8498;52.516;13.790;2023-11-22T07:37:07;12.07;;;5.37;;
16760;SDS011;8498;52.516;13.790;2023-11-22T07:42:30;13.83;;;5.80;;
16760;SDS011;8498;52.516;13.790;2023-11-22T07:47:52;9.00;;;4.97;;
16760;SDS011;8498;52.516;13.790;2023-11-22T07:53:16;19.67;;;6.87;;
16760;SDS011;8498;52.516;13.790;2023-11-22T07:58:39;18.90;;;6.63;;
16760;SDS011;8498;52.516;13.790;2023-11-22T08:04:03;14.73;;;4.70;;
16760;SDS011;8498;52.516;13.790;2023-11-22T08:09:27;12.70;;;5.17;;
16760;SDS011;8498;52.516;13.790;2023-11-22T08:14:54;11.90;;;4.73;;
16760;SDS011;8498;52.516;13.790;2023-11-22T08:20:19;13.30;;;5.20;;
16760;SDS011;8498;52.516;13.790;2023-11-22T08:25:42;14.17;;;4.90;;
16760;SDS011;8498;52.516;13.790;2023-11-22T08:31:06;14.37;;;6.47;;
16760;SDS011;8498;52.516;13.790;2023-11-22T08:36:31;10.77;;;4.93;;
16760;SDS011;8498;52.516;13.790;2023-11-22T08:41:56;12.63;;;5.70;;
16760;SDS011;8498;52.516;13.790;2023-11-22T08:47:18;7.47;;;5.13;;
16760;SDS011;8498;52.516;13.790;2023-11-22T08:52:41;9.87;;;5.13;;
16760;SDS011;8498;52.516;13.790;2023-11-22T08:58:07;11.97;;;4.80;;
16760;SDS011;8498;52.516;13.790;2023-11-22T09:03:30;7.50;;;4.73;;
16760;SDS011;8498;52.516;13.790;2023-11-22T09:08:53;10.57;;;5.37;;
16760;SDS011;8498;52.516;13.790;2023-11-22T09:14:16;10.67;;;4.83;;
16760;SDS011;8498;52.516;13.790;2023-11-22T09:19:38;7.40;;;4.30;;
16760;SDS011;8498;52.516;13.790;2023-11-22T09:25:01;9.50;;;4.90;;
16760;SDS011;8498;52.516;13.790;2023-11-22T09:30:25;14.07;;;5.20;;
16760;SDS011;8498;52.516;13.790;2023-11-22T09:35:56;11.17;;;5.03;;
16760;SDS011;8498;52.516;13.790;2023-11-22T09:41:20;9.93;;;5.20;;
16760;SDS011;8498;52.516;13.790;2023-11-22T09:46:43;11.37;;;4.97;;
16760;SDS011;8498;52.516;13.790;2023-11-22T09:52:07;13.87;;;5.30;;
16760;SDS011;8498;52.516;13.790;2023-11-22T09:57:34;9.93;;;5.20;;
16760;SDS011;8498;52.516;13.790;2023-11-22T10:03:01;11.23;;;4.63;;
16760;SDS011;8498;52.516;13.790;2023-11-22T10:08:24;10.33;;;5.00;;
16760;SDS011;8498;52.516;13.790;2023-11-22T10:13:48;11.30;;;5.37;;
16760;SDS011;8498;52.516;13.790;2023-11-22T10:19:12;11.10;;;5.10;;
16760;SDS011;8498;52.516;13.790;2023-11-22T10:24:36;12.37;;;5.07;;
16760;SDS011;8498;52.516;13.790;2023-11-22T10:29:58;10.17;;;4.70;;
16760;SDS011;8498;52.516;13.790;2023-11-22T10:35:21;7.17;;;4.23;;
16760;SDS011;8498;52.516;13.790;2023-11-22T10:40:47;10.20;;;5.20;;
16760;SDS011;8498;52.516;13.790;2023-11-22T10:46:10;7.30;;;4.80;;
16760;SDS011;8498;52.516;13.790;2023-11-22T10:51:36;9.70;;;4.50;;
16760;SDS011;8498;52.516;13.790;2023-11-22T10:57:02;8.27;;;4.80;;
16760;SDS011;8498;52.516;13.790;2023-11-22T11:02:25;9.73;;;4.93;;
16760;SDS011;8498;52.516;13.790;2023-11-22T11:07:58;9.50;;;4.73;;
16760;SDS011;8498;52.516;13.790;2023-11-22T11:13:25;10.83;;;4.43;;
16760;SDS011;8498;52.516;13.790;2023-11-22T11:18:49;9.23;;;4.80;;
16760;SDS011;8498;52.516;13.790;2023-11-22T11:24:13;12.33;;;4.73;;
16760;SDS011;8498;52.516;13.790;2023-11-22T11:29:36;10.90;;;5.20;;
16760;SDS011;8498;52.516;13.790;2023-11-22T11:35:05;8.03;;;4.17;;
16760;SDS011;8498;52.516;13.790;2023-11-22T11:40:31;9.60;;;4.60;;
16760;SDS011;8498;52.516;13.790;2023-11-22T11:45:57;11.73;;;4.70;;
16760;SDS011;8498;52.516;13.790;2023-11-22T11:51:26;8.73;;;4.37;;
16760;SDS011;8498;52.516;13.790;2023-11-22T11:56:50;8.30;;;4.20;;
16760;SDS011;8498;52.516;13.790;2023-11-22T12:02:17;12.83;;;4.23;;
16760;SDS011;8498;52.516;13.790;2023-11-22T12:07:41;9.87;;;4.97;;
16760;SDS011;8498;52.516;13.790;2023-11-22T12:13:04;8.70;;;5.00;;
16760;SDS011;8498;52.516;13.790;2023-11-22T12:18:28;9.40;;;4.90;;
16760;SDS011;8498;52.516;13.790;2023-11-22T12:23:51;9.87;;;4.77;;
16760;SDS011;8498;52.516;13.790;2023-11-22T12:29:14;10.07;;;4.97;;
16760;SDS011;8498;52.516;13.790;2023-11-22T12:34:36;7.97;;;4.87;;
16760;SDS011;8498;52.516;13.790;2023-11-22T12:39:59;9.60;;;4.93;;
16760;SDS011;8498;52.516;13.790;2023-11-22T12:45:33;10.77;;;4.73;;
16760;SDS011;8498;52.516;13.790;2023-11-22T12:51:01;9.80;;;4.67;;
16760;SDS011;8498;52.516;13.790;2023-11-22T12:56:24;11.27;;;4.70;;
16760;SDS011;8498;52.516;13.790;2023-11-22T13:01:50;6.27;;;3.90;;
16760;SDS011;8498;52.516;13.790;2023-11-22T13:07:14;5.83;;;3.80;;
16760;SDS011;8498;52.516;13.790;2023-11-22T13:12:37;6.83;;;3.70;;
16760;SDS011;8498;52.516;13.790;2023-11-22T13:18:00;9.50;;;3.80;;
16760;SDS011;8498;52.516;13.790;2023-11-22T13:23:23;6.43;;;4.13;;
16760;SDS011;8498;52.516;13.790;2023-11-22T13:28:45;5.67;;;3.50;;
16760;SDS011;8498;52.516;13.790;2023-11-22T13:34:07;7.27;;;3.70;;
16760;SDS011;8498;52.516;13.790;2023-11-22T13:39:30;7.77;;;3.80;;
16760;SDS011;8498;52.516;13.790;2023-11-22T13:44:55;7.73;;;4.03;;
16760;SDS011;8498;52.516;13.790;2023-11-22T13:50:18;6.03;;;3.93;;
16760;SDS011;8498;52.516;13.790;2023-11-22T13:55:44;8.57;;;3.73;;
16760;SDS011;8498;52.516;13.790;2023-11-22T14:01:06;6.07;;;3.50;;
16760;SDS011;8498;52.516;13.790;2023-11-22T14:06:33;4.93;;;3.10;;
16760;SDS011;8498;52.516;13.790;2023-11-22T14:11:56;7.27;;;3.90;;
16760;SDS011;8498;52.516;13.790;2023-11-22T14:17:19;6.93;;;3.63;;
16760;SDS011;8498;52.516;13.790;2023-11-22T14:22:43;12.27;;;4.00;;
16760;SDS011;8498;52.516;13.790;2023-11-22T14:28:06;5.37;;;3.30;;
16760;SDS011;8498;52.516;13.790;2023-11-22T14:33:28;6.17;;;3.43;;
16760;SDS011;8498;52.516;13.790;2023-11-22T14:38:53;8.13;;;4.10;;
16760;SDS011;8498;52.516;13.790;2023-11-22T14:44:18;11.00;;;4.43;;
16760;SDS011;8498;52.516;13.790;2023-11-22T14:49:41;5.47;;;3.90;;
16760;SDS011;8498;52.516;13.790;2023-11-22T14:55:08;6.93;;;3.37;;
16760;SDS011;8498;52.516;13.790;2023-11-22T15:00:33;4.93;;;3.63;;
16760;SDS011;8498;52.516;13.790;2023-11-22T15:05:55;6.43;;;3.50;;
16760;SDS011;8498;52.516;13.790;2023-11-22T15:11:19;5.50;;;3.80;;
16760;SDS011;8498;52.516;13.790;2023-11-22T15:16:42;7.10;;;3.70;;
16760;SDS011;8498;52.516;13.790;2023-11-22T15:22:05;7.67;;;4.10;;
16760;SDS011;8498;52.516;13.790;2023-11-22T15:27:28;9.13;;;4.20;;
16760;SDS011;8498;52.516;13.790;2023-11-22T15:32:50;6.47;;;3.73;;
16760;SDS011;8498;52.516;13.790;2023-11-22T15:38:15;6.10;;;3.77;;
16760;SDS011;8498;52.516;13.790;2023-11-22T15:43:37;6.47;;;3.97;;
16760;SDS011;8498;52.516;13.790;2023-11-22T15:49:00;12.90;;;4.13;;
16760;SDS011;8498;52.516;13.790;2023-11-22T15:54:22;9.17;;;4.30;;
16760;SDS011;8498;52.516;13.790;2023-11-22T15:59:44;10.40;;;3.90;;
16760;SDS011;8498;52.516;13.790;2023-11-22T16:05:07;6.60;;;3.63;;
16760;SDS011;8498;52.516;13.790;2023-11-22T16:10:35;12.67;;;4.00;;
16760;SDS011;8498;52.516;13.790;2023-11-22T16:15:57;9.17;;;4.17;;
16760;SDS011;8498;52.516;13.790;2023-11-22T16:21:22;12.57;;;4.97;;
16760;SDS011;8498;52.516;13.790;2023-11-22T16:26:45;9.73;;;4.77;;
16760;SDS011;8498;52.516;13.790;2023-11-22T16:32:08;10.80;;;5.40;;
16760;SDS011;8498;52.516;13.790;2023-11-22T16:37:31;13.00;;;6.13;;
16760;SDS011;8498;52.516;13.790;2023-11-22T16:42:54;12.23;;;5.97;;
16760;SDS011;8498;52.516;13.790;2023-11-22T16:48:17;12.13;;;5.17;;
16760;SDS011;8498;52.516;13.790;2023-11-22T16:53:40;10.00;;;5.17;;
16760;SDS011;8498;52.516;13.790;2023-11-22T16:59:02;12.17;;;6.33;;
16760;SDS011;8498;52.516;13.790;2023-11-22T17:04:25;11.77;;;5.90;;
16760;SDS011;8498;52.516;13.790;2023-11-22T17:09:47;11.20;;;6.60;;
16760;SDS011;8498;52.516;13.790;2023-11-22T17:15:10;12.37;;;6.30;;
16760;SDS011;8498;52.516;13.790;2023-11-22T17:20:35;13.10;;;6.50;;
16760;SDS011;8498;52.516;13.790;2023-11-22T17:25:57;13.47;;;6.33;;
16760;SDS011;8498;52.516;13.790;2023-11-22T17:31:20;16.23;;;6.60;;
16760;SDS011;8498;52.516;13.790;2023-11-22T17:36:42;13.00;;;5.87;;
16760;SDS011;8498;52.516;13.790;2023-11-22T17:42:05;13.17;;;6.23;;
16760;SDS011;8498;52.516;13.790;2023-11-22T17:47:28;11.33;;;6.07;;
16760;SDS011;8498;52.516;13.790;2023-11-22T17:52:54;12.43;;;6.50;;
16760;SDS011;8498;52.516;13.790;2023-11-22T17:58:16;15.60;;;6.30;;
16760;SDS011;8498;52.516;13.790;2023-11-22T18:03:39;12.70;;;6.73;;
16760;SDS011;8498;52.516;13.790;2023-11-22T18:09:01;16.73;;;6.07;;
16760;SDS011;8498;52.516;13.790;2023-11-22T18:14:24;15.47;;;6.37;;
16760;SDS011;8498;52.516;13.790;2023-11-22T18:19:47;10.73;;;5.80;;
16760;SDS011;8498;52.516;13.790;2023-11-22T18:25:10;10.47;;;6.20;;
16760;SDS011;8498;52.516;13.790;2023-11-22T18:30:36;14.13;;;6.43;;
16760;SDS011;8498;52.516;13.790;2023-11-22T18:35:59;10.97;;;5.67;;
16760;SDS011;8498;52.516;13.790;2023-11-22T18:41:22;12.83;;;6.40;;
16760;SDS011;8498;52.516;13.790;2023-11-22T18:46:45;20.23;;;8.13;;
16760;SDS011;8498;52.516;13.790;2023-11-22T18:52:07;17.23;;;7.17;;
16760;SDS011;8498;52.516;13.790;2023-11-22T18:57:30;16.67;;;6.83;;
16760;SDS011;8498;52.516;13.790;2023-11-22T19:02:52;15.20;;;6.40;;
16760;SDS011;8498;52.516;13.790;2023-11-22T19:08:15;14.10;;;6.77;;
16760;SDS011;8498;52.516;13.790;2023-11-22T19:13:38;16.93;;;6.80;;
16760;SDS011;8498;52.516;13.790;2023-11-22T19:19:01;16.13;;;7.73;;
16760;SDS011;8498;52.516;13.790;2023-11-22T19:24:24;17.50;;;7.97;;
16760;SDS011;8498;52.516;13.790;2023-11-22T19:29:49;14.17;;;7.20;;
16760;SDS011;8498;52.516;13.790;2023-11-22T19:35:11;15.80;;;6.50;;
16760;SDS011;8498;52.516;13.790;2023-11-22T19:40:34;15.20;;;7.67;;
16760;SDS011;8498;52.516;13.790;2023-11-22T19:45:57;16.60;;;7.43;;
16760;SDS011;8498;52.516;13.790;2023-11-22T19:51:20;18.27;;;8.27;;
16760;SDS011;8498;52.516;13.790;2023-11-22T19:56:43;17.00;;;8.23;;
16760;SDS011;8498;52.516;13.790;2023-11-22T20:02:06;19.17;;;8.13;;
16760;SDS011;8498;52.516;13.790;2023-11-22T20:07:29;22.33;;;8.50;;
16760;SDS011;8498;52.516;13.790;2023-11-22T20:12:53;20.07;;;8.00;;
16760;SDS011;8498;52.516;13.790;2023-11-22T20:18:15;20.37;;;8.90;;
16760;SDS011;8498;52.516;13.790;2023-11-22T20:23:39;25.57;;;10.53;;
16760;SDS011;8498;52.516;13.790;2023-11-22T20:29:02;21.30;;;9.37;;
16760;SDS011;8498;52.516;13.790;2023-11-22T20:34:26;18.50;;;9.13;;
16760;SDS011;8498;52.516;13.790;2023-11-22T20:39:48;21.80;;;9.53;;
16760;SDS011;8498;52.516;13.790;2023-11-22T20:45:11;26.93;;;10.80;;
16760;SDS011;8498;52.516;13.790;2023-11-22T20:50:34;27.30;;;11.03;;
16760;SDS011;8498;52.516;13.790;2023-11-22T20:55:57;27.03;;;10.17;;
16760;SDS011;8498;52.516;13.790;2023-11-22T21:01:21;24.53;;;10.63;;
16760;SDS011;8498;52.516;13.790;2023-11-22T21:06:43;24.90;;;10.47;;
16760;SDS011;8498;52.516;13.790;2023-11-22T21:12:06;26.60;;;10.67;;
16760;SDS011;8498;52.516;13.790;2023-11-22T21:17:29;29.47;;;11.37;;
16760;SDS011;8498;52.516;13.790;2023-11-22T21:23:03;25.50;;;10.50;;
16760;SDS011;8498;52.516;13.790;2023-11-22T21:28:25;24.33;;;10.77;;
16760;SDS011;8498;52.516;13.790;2023-11-22T21:33:48;27.37;;;11.27;;
16760;SDS011;8498;52.516;13.790;2023-11-22T21:39:11;30.70;;;11.37;;
16760;SDS011;8498;52.516;13.790;2023-11-22T21:44:35;24.73;;;10.33;;
16760;SDS011;8498;52.516;13.790;2023-11-22T21:49:57;25.53;;;10.20;;
16760;SDS011;8498;52.516;13.790;2023-11-22T21:55:20;28.57;;;11.13;;
16760;SDS011;8498;52.516;13.790;2023-11-22T22:00:42;29.63;;;11.03;;
16760;SDS011;8498;52.516;13.790;2023-11-22T22:06:05;24.97;;;10.43;;
16760;SDS011;8498;52.516;13.790;2023-11-22T22:11:28;22.73;;;9.90;;
16760;SDS011;8498;52.516;13.790;2023-11-22T22:16:50;23.13;;;9.90;;
16760;SDS011;8498;52.516;13.790;2023-11-22T22:22:12;26.70;;;11.17;;
16760;SDS011;8498;52.516;13.790;2023-11-22T22:27:35;25.13;;;11.53;;
16760;SDS011;8498;52.516;13.790;2023-11-22T22:32:57;26.60;;;11.00;;
16760;SDS011;8498;52.516;13.790;2023-11-22T22:38:20;21.80;;;9.90;;
16760;SDS011;8498;52.516;13.790;2023-11-22T22:43:42;21.73;;;11.03;;
16760;SDS011;8498;52.516;13.790;2023-11-22T22:49:05;19.57;;;9.77;;
16760;SDS011;8498;52.516;13.790;2023-11-22T22:54:28;24.33;;;10.20;;
16760;SDS011;8498;52.516;13.790;2023-11-22T22:59:51;24.37;;;10.57;;
16760;SDS011;8498;52.516;13.790;2023-11-22T23:05:13;24.43;;;9.90;;
16760;SDS011;8498;52.516;13.790;2023-11-22T23:10:47;22.33;;;10.83;;
16760;SDS011;8498;52.516;13.790;2023-11-22T23:16:09;24.17;;;9.77;;
16760;SDS011;8498;52.516;13.790;2023-11-22T23:21:32;22.63;;;10.87;;
16760;SDS011;8498;52.516;13.790;2023-11-22T23:26:54;22.77;;;10.20;;
16760;SDS011;8498;52.516;13.790;2023-11-22T23:32:17;20.83;;;8.33;;
16760;SDS011;8498;52.516;13.790;2023-11-22T23:37:39;21.93;;;9.43;;
16760;SDS011;8498;52.516;13.790;2023-11-22T23:43:04;22.03;;;9.53;;
16760;SDS011;8498;52.516;13.790;2023-11-22T23:48:26;20.67;;;9.03;;
16760;SDS011;8498;52.516;13.790;2023-11-22T23:53:50;16.73;;;8.30;;
16760;SDS011;8498;52.516;13.790;2023-11-22T23:59:13;17.97;;;7.80;;
